sensor_id;sensor_type;location;lat;lon;timestamp;temperature;humidity
27667;DHT22;15074;50.940;5.282;2023-06-04T00:02:02;15.40;81.50
27667;DHT22;15074;50.940;5.282;2023-06-04T00:04:27;15.40;81.50
27667;DHT22;15074;50.940;5.282;2023-06-04T00:06:54;15.40;81.60
27667;DHT22;15074;50.940;5.282;2023-06-04T00:09:19;15.30;82.20
27667;DHT22;15074;50.940;5.282;2023-06-04T00:11:45;15.20;82.20
27667;DHT22;15074;50.940;5.282;2023-06-04T00:14:13;15.20;82.70
27667;DHT22;15074;50.940;5.282;2023-06-04T00:16:39;15.10;82.80
27667;DHT22;15074;50.940;5.282;2023-06-04T00:19:06;15.10;83.10
27667;DHT22;15074;50.940;5.282;2023-06-04T00:21:32;15.10;83.10
27667;DHT22;15074;50.940;5.282;2023-06-04T00:23:59;15.10;82.90
27667;DHT22;15074;50.940;5.282;2023-06-04T00:26:24;15.10;83.10
27667;DHT22;15074;50.940;5.282;2023-06-04T00:28:50;15.10;83.10
27667;DHT22;15074;50.940;5.282;2023-06-04T00:31:16;14.90;83.90
27667;DHT22;15074;50.940;5.282;2023-06-04T00:33:42;14.80;84.80
27667;DHT22;15074;50.940;5.282;2023-06-04T00:36:07;14.80;84.80
27667;DHT22;15074;50.940;5.282;2023-06-04T00:38:33;14.70;85.30
27667;DHT22;15074;50.940;5.282;2023-06-04T00:40:59;14.60;85.80
27667;DHT22;15074;50.940;5.282;2023-06-04T00:43:24;14.60;86.40
27667;DHT22;15074;50.940;5.282;2023-06-04T00:45:53;14.60;86.30
27667;DHT22;15074;50.940;5.282;2023-06-04T00:48:19;14.70;86.10
27667;DHT22;15074;50.940;5.282;2023-06-04T00:50:46;14.60;86.10
27667;DHT22;15074;50.940;5.282;2023-06-04T00:53:12;14.60;86.50
27667;DHT22;15074;50.940;5.282;2023-06-04T00:55:38;14.50;86.90
27667;DHT22;15074;50.940;5.282;2023-06-04T00:58:04;14.60;87.10
27667;DHT22;15074;50.940;5.282;2023-06-04T01:00:30;14.50;87.10
27667;DHT22;15074;50.940;5.282;2023-06-04T01:02:58;14.50;87.50
27667;DHT22;15074;50.940;5.282;2023-06-04T01:05:40;14.40;87.70
27667;DHT22;15074;50.940;5.282;2023-06-04T01:08:08;14.40;87.90
27667;DHT22;15074;50.940;5.282;2023-06-04T01:10:37;14.30;88.30
27667;DHT22;15074;50.940;5.282;2023-06-04T01:13:02;14.30;88.40
27667;DHT22;15074;50.940;5.282;2023-06-04T01:15:28;14.20;88.50
27667;DHT22;15074;50.940;5.282;2023-06-04T01:18:00;14.20;88.70
27667;DHT22;15074;50.940;5.282;2023-06-04T01:20:38;14.00;89.10
27667;DHT22;15074;50.940;5.282;2023-06-04T01:26:00;14.10;89.10
27667;DHT22;15074;50.940;5.282;2023-06-04T01:28:28;14.10;89.20
27667;DHT22;15074;50.940;5.282;2023-06-04T01:30:55;13.90;90.10
27667;DHT22;15074;50.940;5.282;2023-06-04T01:33:22;13.90;90.20
27667;DHT22;15074;50.940;5.282;2023-06-04T01:35:49;13.80;90.50
27667;DHT22;15074;50.940;5.282;2023-06-04T01:38:15;13.80;90.50
27667;DHT22;15074;50.940;5.282;2023-06-04T01:40:40;13.90;90.80
27667;DHT22;15074;50.940;5.282;2023-06-04T01:43:07;13.70;91.10
27667;DHT22;15074;50.940;5.282;2023-06-04T01:45:32;13.60;91.20
27667;DHT22;15074;50.940;5.282;2023-06-04T01:48:01;13.60;91.30
27667;DHT22;15074;50.940;5.282;2023-06-04T01:50:27;13.60;91.30
27667;DHT22;15074;50.940;5.282;2023-06-04T01:52:54;13.60;91.40
27667;DHT22;15074;50.940;5.282;2023-06-04T01:55:20;13.60;91.60
27667;DHT22;15074;50.940;5.282;2023-06-04T01:57:46;13.60;91.70
27667;DHT22;15074;50.940;5.282;2023-06-04T02:00:13;13.60;91.70
27667;DHT22;15074;50.940;5.282;2023-06-04T02:02:40;13.60;91.70
27667;DHT22;15074;50.940;5.282;2023-06-04T02:05:07;13.60;91.70
27667;DHT22;15074;50.940;5.282;2023-06-04T02:07:35;13.60;91.70
27667;DHT22;15074;50.940;5.282;2023-06-04T02:12:32;13.60;91.70
27667;DHT22;15074;50.940;5.282;2023-06-04T02:14:58;13.50;91.80
27667;DHT22;15074;50.940;5.282;2023-06-04T02:17:24;13.50;91.90
27667;DHT22;15074;50.940;5.282;2023-06-04T02:19:50;13.50;92.10
27667;DHT22;15074;50.940;5.282;2023-06-04T02:22:19;13.50;92.40
27667;DHT22;15074;50.940;5.282;2023-06-04T02:24:45;13.40;92.80
27667;DHT22;15074;50.940;5.282;2023-06-04T02:27:12;13.40;93.10
27667;DHT22;15074;50.940;5.282;2023-06-04T02:29:41;13.30;93.20
27667;DHT22;15074;50.940;5.282;2023-06-04T02:32:07;13.30;93.60
27667;DHT22;15074;50.940;5.282;2023-06-04T02:34:33;13.30;93.80
27667;DHT22;15074;50.940;5.282;2023-06-04T02:37:03;13.30;94.10
27667;DHT22;15074;50.940;5.282;2023-06-04T02:39:28;13.30;94.30
27667;DHT22;15074;50.940;5.282;2023-06-04T02:41:54;13.20;94.60
27667;DHT22;15074;50.940;5.282;2023-06-04T02:44:20;13.20;94.90
27667;DHT22;15074;50.940;5.282;2023-06-04T02:46:46;13.30;95.10
27667;DHT22;15074;50.940;5.282;2023-06-04T02:49:12;13.20;95.50
27667;DHT22;15074;50.940;5.282;2023-06-04T02:51:44;13.20;96.00
27667;DHT22;15074;50.940;5.282;2023-06-04T02:54:10;13.10;96.50
27667;DHT22;15074;50.940;5.282;2023-06-04T02:56:37;13.10;97.00
27667;DHT22;15074;50.940;5.282;2023-06-04T02:59:03;13.00;97.60
27667;DHT22;15074;50.940;5.282;2023-06-04T03:01:29;13.00;98.30
27667;DHT22;15074;50.940;5.282;2023-06-04T03:03:56;13.00;98.80
27667;DHT22;15074;50.940;5.282;2023-06-04T03:06:23;13.00;99.40
27667;DHT22;15074;50.940;5.282;2023-06-04T03:08:50;12.90;99.90
27667;DHT22;15074;50.940;5.282;2023-06-04T03:11:17;12.80;99.90
27667;DHT22;15074;50.940;5.282;2023-06-04T03:13:44;12.90;99.90
27667;DHT22;15074;50.940;5.282;2023-06-04T03:16:10;12.90;99.90
27667;DHT22;15074;50.940;5.282;2023-06-04T03:18:42;12.90;99.90
27667;DHT22;15074;50.940;5.282;2023-06-04T03:21:09;13.00;99.90
27667;DHT22;15074;50.940;5.282;2023-06-04T03:23:37;12.90;99.90
27667;DHT22;15074;50.940;5.282;2023-06-04T03:26:04;12.90;99.90
27667;DHT22;15074;50.940;5.282;2023-06-04T03:28:30;12.70;99.90
27667;DHT22;15074;50.940;5.282;2023-06-04T03:30:56;12.80;99.90
27667;DHT22;15074;50.940;5.282;2023-06-04T03:33:22;12.70;99.90
27667;DHT22;15074;50.940;5.282;2023-06-04T03:35:47;12.70;99.90
27667;DHT22;15074;50.940;5.282;2023-06-04T03:38:14;12.70;99.90
27667;DHT22;15074;50.940;5.282;2023-06-04T03:40:40;12.60;99.90
27667;DHT22;15074;50.940;5.282;2023-06-04T03:43:06;12.60;99.90
27667;DHT22;15074;50.940;5.282;2023-06-04T03:45:32;12.50;99.90
27667;DHT22;15074;50.940;5.282;2023-06-04T03:47:57;12.50;99.90
27667;DHT22;15074;50.940;5.282;2023-06-04T03:50:23;12.50;99.90
27667;DHT22;15074;50.940;5.282;2023-06-04T03:52:49;12.40;99.90
27667;DHT22;15074;50.940;5.282;2023-06-04T03:55:15;12.40;99.90
27667;DHT22;15074;50.940;5.282;2023-06-04T03:57:40;12.50;99.90
27667;DHT22;15074;50.940;5.282;2023-06-04T04:00:08;12.50;99.90
27667;DHT22;15074;50.940;5.282;2023-06-04T04:02:40;12.60;99.90
27667;DHT22;15074;50.940;5.282;2023-06-04T04:05:06;12.50;99.90
27667;DHT22;15074;50.940;5.282;2023-06-04T04:07:31;12.60;99.90
27667;DHT22;15074;50.940;5.282;2023-06-04T04:09:57;12.60;99.90
27667;DHT22;15074;50.940;5.282;2023-06-04T04:12:23;12.60;99.90
27667;DHT22;15074;50.940;5.282;2023-06-04T04:14:48;12.60;99.90
27667;DHT22;15074;50.940;5.282;2023-06-04T04:17:14;12.60;99.90
27667;DHT22;15074;50.940;5.282;2023-06-04T04:19:40;12.70;99.90
27667;DHT22;15074;50.940;5.282;2023-06-04T04:22:06;12.70;99.90
27667;DHT22;15074;50.940;5.282;2023-06-04T04:24:32;12.80;99.90
27667;DHT22;15074;50.940;5.282;2023-06-04T04:26:59;12.90;99.90
27667;DHT22;15074;50.940;5.282;2023-06-04T04:29:25;13.00;99.90
27667;DHT22;15074;50.940;5.282;2023-06-04T04:31:53;13.10;99.90
27667;DHT22;15074;50.940;5.282;2023-06-04T04:34:22;13.20;99.90
27667;DHT22;15074;50.940;5.282;2023-06-04T04:36:50;13.40;99.90
27667;DHT22;15074;50.940;5.282;2023-06-04T04:39:24;14.00;99.90
27667;DHT22;15074;50.940;5.282;2023-06-04T04:41:51;14.30;99.90
27667;DHT22;15074;50.940;5.282;2023-06-04T04:44:17;14.80;99.90
27667;DHT22;15074;50.940;5.282;2023-06-04T04:46:42;15.10;99.90
27667;DHT22;15074;50.940;5.282;2023-06-04T04:49:08;15.40;99.90
27667;DHT22;15074;50.940;5.282;2023-06-04T04:51:34;15.70;99.90
27667;DHT22;15074;50.940;5.282;2023-06-04T04:54:00;16.10;99.90
27667;DHT22;15074;50.940;5.282;2023-06-04T04:56:26;16.30;99.90
27667;DHT22;15074;50.940;5.282;2023-06-04T04:58:53;16.60;99.90
27667;DHT22;15074;50.940;5.282;2023-06-04T05:01:18;16.60;99.90
27667;DHT22;15074;50.940;5.282;2023-06-04T05:03:44;16.70;99.90
27667;DHT22;15074;50.940;5.282;2023-06-04T05:06:10;16.80;99.90
27667;DHT22;15074;50.940;5.282;2023-06-04T05:08:36;16.90;99.90
27667;DHT22;15074;50.940;5.282;2023-06-04T05:11:02;17.30;99.90
27667;DHT22;15074;50.940;5.282;2023-06-04T05:13:27;17.70;99.90
27667;DHT22;15074;50.940;5.282;2023-06-04T05:15:53;17.90;99.90
27667;DHT22;15074;50.940;5.282;2023-06-04T05:18:19;18.50;99.90
27667;DHT22;15074;50.940;5.282;2023-06-04T05:20:58;19.00;99.40
27667;DHT22;15074;50.940;5.282;2023-06-04T05:23:26;19.40;97.80
27667;DHT22;15074;50.940;5.282;2023-06-04T05:25:52;19.90;96.70
27667;DHT22;15074;50.940;5.282;2023-06-04T05:28:18;20.00;95.80
27667;DHT22;15074;50.940;5.282;2023-06-04T05:30:43;20.10;95.30
27667;DHT22;15074;50.940;5.282;2023-06-04T05:33:09;20.70;94.30
27667;DHT22;15074;50.940;5.282;2023-06-04T05:35:46;20.90;93.80
27667;DHT22;15074;50.940;5.282;2023-06-04T05:38:11;20.80;92.70
27667;DHT22;15074;50.940;5.282;2023-06-04T05:40:43;20.80;92.50
27667;DHT22;15074;50.940;5.282;2023-06-04T05:43:08;20.40;93.10
27667;DHT22;15074;50.940;5.282;2023-06-04T05:45:34;20.00;93.50
27667;DHT22;15074;50.940;5.282;2023-06-04T05:48:00;20.80;93.20
27667;DHT22;15074;50.940;5.282;2023-06-04T05:50:26;21.80;91.70
27667;DHT22;15074;50.940;5.282;2023-06-04T05:52:52;22.10;90.70
27667;DHT22;15074;50.940;5.282;2023-06-04T05:55:18;22.50;89.50
27667;DHT22;15074;50.940;5.282;2023-06-04T05:57:43;21.80;89.80
27667;DHT22;15074;50.940;5.282;2023-06-04T06:00:09;22.10;90.10
27667;DHT22;15074;50.940;5.282;2023-06-04T06:02:36;22.70;88.60
27667;DHT22;15074;50.940;5.282;2023-06-04T06:05:03;22.80;88.20
27667;DHT22;15074;50.940;5.282;2023-06-04T06:07:28;22.90;87.30
27667;DHT22;15074;50.940;5.282;2023-06-04T06:09:54;23.00;85.70
27667;DHT22;15074;50.940;5.282;2023-06-04T06:12:20;23.00;85.20
27667;DHT22;15074;50.940;5.282;2023-06-04T06:14:45;22.90;84.80
27667;DHT22;15074;50.940;5.282;2023-06-04T06:17:11;22.40;85.00
27667;DHT22;15074;50.940;5.282;2023-06-04T06:19:37;22.80;85.30
27667;DHT22;15074;50.940;5.282;2023-06-04T06:22:03;23.10;84.20
27667;DHT22;15074;50.940;5.282;2023-06-04T06:24:29;23.40;83.90
27667;DHT22;15074;50.940;5.282;2023-06-04T06:26:55;22.90;83.60
27667;DHT22;15074;50.940;5.282;2023-06-04T06:29:21;23.10;83.90
27667;DHT22;15074;50.940;5.282;2023-06-04T06:31:47;24.00;81.60
27667;DHT22;15074;50.940;5.282;2023-06-04T06:34:13;24.20;80.40
27667;DHT22;15074;50.940;5.282;2023-06-04T06:36:38;23.80;80.60
27667;DHT22;15074;50.940;5.282;2023-06-04T06:39:04;24.50;79.60
27667;DHT22;15074;50.940;5.282;2023-06-04T06:41:30;24.10;79.10
27667;DHT22;15074;50.940;5.282;2023-06-04T06:43:57;24.30;78.70
27667;DHT22;15074;50.940;5.282;2023-06-04T06:46:22;24.70;77.90
27667;DHT22;15074;50.940;5.282;2023-06-04T06:48:48;25.30;77.00
27667;DHT22;15074;50.940;5.282;2023-06-04T06:51:14;25.60;75.80
27667;DHT22;15074;50.940;5.282;2023-06-04T06:53:40;26.10;74.10
27667;DHT22;15074;50.940;5.282;2023-06-04T06:56:06;26.20;73.10
27667;DHT22;15074;50.940;5.282;2023-06-04T06:58:32;26.60;72.40
27667;DHT22;15074;50.940;5.282;2023-06-04T07:00:57;26.30;72.10
27667;DHT22;15074;50.940;5.282;2023-06-04T07:03:23;26.60;71.40
27667;DHT22;15074;50.940;5.282;2023-06-04T07:05:49;26.60;71.00
27667;DHT22;15074;50.940;5.282;2023-06-04T07:08:14;25.90;72.00
27667;DHT22;15074;50.940;5.282;2023-06-04T07:10:40;26.00;72.60
27667;DHT22;15074;50.940;5.282;2023-06-04T07:13:06;27.00;71.00
27667;DHT22;15074;50.940;5.282;2023-06-04T07:15:31;27.90;69.10
27667;DHT22;15074;50.940;5.282;2023-06-04T07:18:00;28.20;67.80
27667;DHT22;15074;50.940;5.282;2023-06-04T07:20:27;27.70;67.70
27667;DHT22;15074;50.940;5.282;2023-06-04T07:22:55;28.40;67.30
27667;DHT22;15074;50.940;5.282;2023-06-04T07:25:20;28.60;66.40
27667;DHT22;15074;50.940;5.282;2023-06-04T07:27:50;27.80;66.60
27667;DHT22;15074;50.940;5.282;2023-06-04T07:30:18;26.90;68.40
27667;DHT22;15074;50.940;5.282;2023-06-04T07:32:47;26.70;69.20
27667;DHT22;15074;50.940;5.282;2023-06-04T07:35:25;27.60;68.40
27667;DHT22;15074;50.940;5.282;2023-06-04T07:37:51;27.90;67.50
27667;DHT22;15074;50.940;5.282;2023-06-04T07:40:25;28.50;67.20
27667;DHT22;15074;50.940;5.282;2023-06-04T07:42:58;28.80;65.80
27667;DHT22;15074;50.940;5.282;2023-06-04T07:45:32;28.20;64.90
27667;DHT22;15074;50.940;5.282;2023-06-04T07:48:00;27.20;67.20
27667;DHT22;15074;50.940;5.282;2023-06-04T07:50:27;27.30;66.20
27667;DHT22;15074;50.940;5.282;2023-06-04T07:52:57;27.50;66.40
27667;DHT22;15074;50.940;5.282;2023-06-04T07:55:25;28.20;66.20
27667;DHT22;15074;50.940;5.282;2023-06-04T07:57:51;29.60;64.20
27667;DHT22;15074;50.940;5.282;2023-06-04T08:00:18;29.70;62.50
27667;DHT22;15074;50.940;5.282;2023-06-04T08:02:44;30.80;61.00
27667;DHT22;15074;50.940;5.282;2023-06-04T08:05:10;30.30;61.40
27667;DHT22;15074;50.940;5.282;2023-06-04T08:07:36;30.40;60.70
27667;DHT22;15074;50.940;5.282;2023-06-04T08:10:02;29.40;62.00
27667;DHT22;15074;50.940;5.282;2023-06-04T08:12:29;30.60;61.20
27667;DHT22;15074;50.940;5.282;2023-06-04T08:14:54;30.50;59.10
27667;DHT22;15074;50.940;5.282;2023-06-04T08:17:22;30.60;59.00
27667;DHT22;15074;50.940;5.282;2023-06-04T08:19:57;30.30;59.40
27667;DHT22;15074;50.940;5.282;2023-06-04T08:22:33;29.60;59.20
27667;DHT22;15074;50.940;5.282;2023-06-04T08:24:58;29.90;59.20
27667;DHT22;15074;50.940;5.282;2023-06-04T08:27:24;28.60;59.70
27667;DHT22;15074;50.940;5.282;2023-06-04T08:29:50;29.10;60.80
27667;DHT22;15074;50.940;5.282;2023-06-04T08:32:16;28.50;61.00
27667;DHT22;15074;50.940;5.282;2023-06-04T08:34:43;27.70;62.00
27667;DHT22;15074;50.940;5.282;2023-06-04T08:37:09;28.90;60.50
27667;DHT22;15074;50.940;5.282;2023-06-04T08:39:35;29.90;58.60
27667;DHT22;15074;50.940;5.282;2023-06-04T08:42:04;29.40;59.10
27667;DHT22;15074;50.940;5.282;2023-06-04T08:44:33;29.80;59.80
27667;DHT22;15074;50.940;5.282;2023-06-04T08:47:04;30.80;57.60
27667;DHT22;15074;50.940;5.282;2023-06-04T08:49:35;31.70;56.20
27667;DHT22;15074;50.940;5.282;2023-06-04T08:52:04;32.20;55.00
27667;DHT22;15074;50.940;5.282;2023-06-04T08:54:32;32.00;54.20
27667;DHT22;15074;50.940;5.282;2023-06-04T08:57:08;30.90;54.80
27667;DHT22;15074;50.940;5.282;2023-06-04T08:59:36;30.40;55.50
27667;DHT22;15074;50.940;5.282;2023-06-04T09:02:02;29.70;56.20
27667;DHT22;15074;50.940;5.282;2023-06-04T09:04:31;29.50;56.40
27667;DHT22;15074;50.940;5.282;2023-06-04T09:07:01;29.90;55.50
27667;DHT22;15074;50.940;5.282;2023-06-04T09:09:29;29.20;56.00
27667;DHT22;15074;50.940;5.282;2023-06-04T09:11:57;29.10;58.20
27667;DHT22;15074;50.940;5.282;2023-06-04T09:14:24;30.20;56.10
27667;DHT22;15074;50.940;5.282;2023-06-04T09:16:53;30.70;55.20
27667;DHT22;15074;50.940;5.282;2023-06-04T09:19:21;30.50;54.80
27667;DHT22;15074;50.940;5.282;2023-06-04T09:21:54;31.50;53.30
27667;DHT22;15074;50.940;5.282;2023-06-04T09:24:22;31.10;53.50
27667;DHT22;15074;50.940;5.282;2023-06-04T09:26:50;30.90;53.20
27667;DHT22;15074;50.940;5.282;2023-06-04T09:29:17;29.70;54.60
27667;DHT22;15074;50.940;5.282;2023-06-04T09:32:08;30.20;54.00
27667;DHT22;15074;50.940;5.282;2023-06-04T09:34:37;30.30;54.20
27667;DHT22;15074;50.940;5.282;2023-06-04T09:37:14;30.40;55.00
27667;DHT22;15074;50.940;5.282;2023-06-04T09:39:43;30.70;54.10
27667;DHT22;15074;50.940;5.282;2023-06-04T09:42:08;31.20;53.10
27667;DHT22;15074;50.940;5.282;2023-06-04T09:44:43;31.00;52.30
27667;DHT22;15074;50.940;5.282;2023-06-04T09:47:12;27.20;56.20
27667;DHT22;15074;50.940;5.282;2023-06-04T09:49:45;27.20;56.10
27667;DHT22;15074;50.940;5.282;2023-06-04T09:52:12;28.10;55.50
27667;DHT22;15074;50.940;5.282;2023-06-04T09:54:40;27.50;55.20
27667;DHT22;15074;50.940;5.282;2023-06-04T09:57:17;28.10;55.80
27667;DHT22;15074;50.940;5.282;2023-06-04T09:59:49;28.00;54.50
27667;DHT22;15074;50.940;5.282;2023-06-04T10:02:20;29.10;54.70
27667;DHT22;15074;50.940;5.282;2023-06-04T10:04:56;30.70;53.30
27667;DHT22;15074;50.940;5.282;2023-06-04T10:07:24;32.00;52.90
27667;DHT22;15074;50.940;5.282;2023-06-04T10:09:50;32.10;51.90
27667;DHT22;15074;50.940;5.282;2023-06-04T10:12:17;32.40;51.80
27667;DHT22;15074;50.940;5.282;2023-06-04T10:14:50;29.80;52.10
27667;DHT22;15074;50.940;5.282;2023-06-04T10:17:18;29.00;52.00
27667;DHT22;15074;50.940;5.282;2023-06-04T10:19:45;28.60;54.10
27667;DHT22;15074;50.940;5.282;2023-06-04T10:22:12;28.10;55.00
27667;DHT22;15074;50.940;5.282;2023-06-04T10:24:38;28.60;54.50
27667;DHT22;15074;50.940;5.282;2023-06-04T10:27:04;29.60;53.90
27667;DHT22;15074;50.940;5.282;2023-06-04T10:29:42;30.30;52.70
27667;DHT22;15074;50.940;5.282;2023-06-04T10:32:10;29.40;52.20
27667;DHT22;15074;50.940;5.282;2023-06-04T10:34:36;29.40;53.20
27667;DHT22;15074;50.940;5.282;2023-06-04T10:37:02;28.30;54.00
27667;DHT22;15074;50.940;5.282;2023-06-04T10:39:29;28.00;53.50
27667;DHT22;15074;50.940;5.282;2023-06-04T10:42:04;26.90;56.10
27667;DHT22;15074;50.940;5.282;2023-06-04T10:44:31;28.60;54.70
27667;DHT22;15074;50.940;5.282;2023-06-04T10:46:58;29.90;53.70
27667;DHT22;15074;50.940;5.282;2023-06-04T10:49:29;30.20;52.20
27667;DHT22;15074;50.940;5.282;2023-06-04T10:51:55;30.90;52.70
27667;DHT22;15074;50.940;5.282;2023-06-04T10:54:25;29.70;51.30
27667;DHT22;15074;50.940;5.282;2023-06-04T10:56:52;27.40;53.70
27667;DHT22;15074;50.940;5.282;2023-06-04T10:59:19;26.30;56.50
27667;DHT22;15074;50.940;5.282;2023-06-04T11:01:45;28.20;56.20
27667;DHT22;15074;50.940;5.282;2023-06-04T11:04:25;29.40;53.80
27667;DHT22;15074;50.940;5.282;2023-06-04T11:07:01;30.00;53.50
27667;DHT22;15074;50.940;5.282;2023-06-04T11:09:30;28.60;54.30
27667;DHT22;15074;50.940;5.282;2023-06-04T11:11:58;27.90;53.30
27667;DHT22;15074;50.940;5.282;2023-06-04T11:14:24;26.80;55.50
27667;DHT22;15074;50.940;5.282;2023-06-04T11:16:50;26.70;56.40
27667;DHT22;15074;50.940;5.282;2023-06-04T11:19:15;27.40;56.00
27667;DHT22;15074;50.940;5.282;2023-06-04T11:21:41;28.30;55.30
27667;DHT22;15074;50.940;5.282;2023-06-04T11:24:07;27.60;55.50
27667;DHT22;15074;50.940;5.282;2023-06-04T11:26:34;28.90;55.10
27667;DHT22;15074;50.940;5.282;2023-06-04T11:29:00;30.60;54.20
27667;DHT22;15074;50.940;5.282;2023-06-04T11:31:27;31.20;53.10
27667;DHT22;15074;50.940;5.282;2023-06-04T11:33:52;32.10;51.70
27667;DHT22;15074;50.940;5.282;2023-06-04T11:36:28;30.70;52.80
27667;DHT22;15074;50.940;5.282;2023-06-04T11:39:03;31.50;52.30
27667;DHT22;15074;50.940;5.282;2023-06-04T11:41:33;31.20;51.30
27667;DHT22;15074;50.940;5.282;2023-06-04T11:44:05;32.10;50.30
27667;DHT22;15074;50.940;5.282;2023-06-04T11:46:51;32.40;49.40
27667;DHT22;15074;50.940;5.282;2023-06-04T11:49:19;32.70;49.40
27667;DHT22;15074;50.940;5.282;2023-06-04T11:51:49;32.90;48.90
27667;DHT22;15074;50.940;5.282;2023-06-04T11:54:16;31.90;50.30
27667;DHT22;15074;50.940;5.282;2023-06-04T11:56:43;31.80;49.80
27667;DHT22;15074;50.940;5.282;2023-06-04T11:59:13;31.50;50.30
27667;DHT22;15074;50.940;5.282;2023-06-04T12:01:45;30.10;51.40
27667;DHT22;15074;50.940;5.282;2023-06-04T12:04:14;30.20;50.50
27667;DHT22;15074;50.940;5.282;2023-06-04T12:07:00;28.40;53.00
27667;DHT22;15074;50.940;5.282;2023-06-04T12:09:28;29.50;53.20
27667;DHT22;15074;50.940;5.282;2023-06-04T12:12:02;29.80;52.10
27667;DHT22;15074;50.940;5.282;2023-06-04T12:14:28;29.30;52.50
27667;DHT22;15074;50.940;5.282;2023-06-04T12:17:06;29.10;53.00
27667;DHT22;15074;50.940;5.282;2023-06-04T12:19:32;29.40;51.40
27667;DHT22;15074;50.940;5.282;2023-06-04T12:22:06;29.60;51.90
27667;DHT22;15074;50.940;5.282;2023-06-04T12:24:33;30.10;51.40
27667;DHT22;15074;50.940;5.282;2023-06-04T12:27:04;30.90;50.50
27667;DHT22;15074;50.940;5.282;2023-06-04T12:29:30;31.60;49.80
27667;DHT22;15074;50.940;5.282;2023-06-04T12:32:07;32.20;48.80
27667;DHT22;15074;50.940;5.282;2023-06-04T12:34:37;32.20;48.30
27667;DHT22;15074;50.940;5.282;2023-06-04T12:37:03;32.00;48.30
27667;DHT22;15074;50.940;5.282;2023-06-04T12:39:35;31.20;49.10
27667;DHT22;15074;50.940;5.282;2023-06-04T12:42:05;30.70;50.30
27667;DHT22;15074;50.940;5.282;2023-06-04T12:44:32;31.00;49.10
27667;DHT22;15074;50.940;5.282;2023-06-04T12:46:58;31.20;48.30
27667;DHT22;15074;50.940;5.282;2023-06-04T12:49:23;31.90;47.80
27667;DHT22;15074;50.940;5.282;2023-06-04T12:51:49;31.40;48.20
27667;DHT22;15074;50.940;5.282;2023-06-04T12:54:15;31.50;48.20
27667;DHT22;15074;50.940;5.282;2023-06-04T12:56:41;31.50;47.70
27667;DHT22;15074;50.940;5.282;2023-06-04T12:59:08;30.10;47.80
27667;DHT22;15074;50.940;5.282;2023-06-04T13:01:34;30.70;48.20
27667;DHT22;15074;50.940;5.282;2023-06-04T13:04:00;29.90;46.20
27667;DHT22;15074;50.940;5.282;2023-06-04T13:06:25;30.20;47.80
27667;DHT22;15074;50.940;5.282;2023-06-04T13:08:51;30.70;48.00
27667;DHT22;15074;50.940;5.282;2023-06-04T13:11:17;31.30;48.00
27667;DHT22;15074;50.940;5.282;2023-06-04T13:13:43;31.50;46.90
27667;DHT22;15074;50.940;5.282;2023-06-04T13:16:09;31.60;47.00
27667;DHT22;15074;50.940;5.282;2023-06-04T13:18:35;31.60;46.60
27667;DHT22;15074;50.940;5.282;2023-06-04T13:21:01;30.10;47.40
27667;DHT22;15074;50.940;5.282;2023-06-04T13:23:27;29.10;47.80
27667;DHT22;15074;50.940;5.282;2023-06-04T13:25:53;28.90;47.80
27667;DHT22;15074;50.940;5.282;2023-06-04T13:28:19;27.10;49.70
27667;DHT22;15074;50.940;5.282;2023-06-04T13:30:45;27.50;50.80
27667;DHT22;15074;50.940;5.282;2023-06-04T13:33:11;28.60;49.60
27667;DHT22;15074;50.940;5.282;2023-06-04T13:35:37;29.00;49.20
27667;DHT22;15074;50.940;5.282;2023-06-04T13:38:04;27.10;49.70
27667;DHT22;15074;50.940;5.282;2023-06-04T13:40:35;26.30;50.40
27667;DHT22;15074;50.940;5.282;2023-06-04T13:43:01;27.10;51.60
27667;DHT22;15074;50.940;5.282;2023-06-04T13:45:27;28.10;49.90
27667;DHT22;15074;50.940;5.282;2023-06-04T13:47:53;27.30;49.50
27667;DHT22;15074;50.940;5.282;2023-06-04T13:50:19;27.90;49.30
27667;DHT22;15074;50.940;5.282;2023-06-04T13:52:45;28.80;48.90
27667;DHT22;15074;50.940;5.282;2023-06-04T13:55:12;29.60;48.60
27667;DHT22;15074;50.940;5.282;2023-06-04T13:57:39;30.50;47.50
27667;DHT22;15074;50.940;5.282;2023-06-04T14:00:05;28.60;47.60
27667;DHT22;15074;50.940;5.282;2023-06-04T14:02:32;27.80;49.50
27667;DHT22;15074;50.940;5.282;2023-06-04T14:04:58;28.20;49.80
27667;DHT22;15074;50.940;5.282;2023-06-04T14:07:23;28.80;49.40
27667;DHT22;15074;50.940;5.282;2023-06-04T14:09:49;29.20;48.20
27667;DHT22;15074;50.940;5.282;2023-06-04T14:12:22;29.70;47.90
27667;DHT22;15074;50.940;5.282;2023-06-04T14:14:49;30.40;47.30
27667;DHT22;15074;50.940;5.282;2023-06-04T14:17:14;30.10;48.10
27667;DHT22;15074;50.940;5.282;2023-06-04T14:19:40;29.70;48.10
27667;DHT22;15074;50.940;5.282;2023-06-04T14:22:06;29.70;49.20
27667;DHT22;15074;50.940;5.282;2023-06-04T14:24:32;30.10;48.20
27667;DHT22;15074;50.940;5.282;2023-06-04T14:26:58;30.20;48.40
27667;DHT22;15074;50.940;5.282;2023-06-04T14:29:24;30.50;48.30
27667;DHT22;15074;50.940;5.282;2023-06-04T14:31:50;30.60;47.90
27667;DHT22;15074;50.940;5.282;2023-06-04T14:34:16;29.90;47.50
27667;DHT22;15074;50.940;5.282;2023-06-04T14:36:42;30.00;47.70
27667;DHT22;15074;50.940;5.282;2023-06-04T14:39:07;29.70;46.70
27667;DHT22;15074;50.940;5.282;2023-06-04T14:41:33;29.80;46.90
27667;DHT22;15074;50.940;5.282;2023-06-04T14:43:59;30.10;45.90
27667;DHT22;15074;50.940;5.282;2023-06-04T14:46:24;30.30;47.00
27667;DHT22;15074;50.940;5.282;2023-06-04T14:48:51;29.80;46.90
27667;DHT22;15074;50.940;5.282;2023-06-04T14:51:16;28.80;47.70
27667;DHT22;15074;50.940;5.282;2023-06-04T14:53:42;28.60;48.40
27667;DHT22;15074;50.940;5.282;2023-06-04T14:56:08;28.50;48.40
27667;DHT22;15074;50.940;5.282;2023-06-04T14:58:33;28.70;49.10
27667;DHT22;15074;50.940;5.282;2023-06-04T15:01:00;28.60;48.70
27667;DHT22;15074;50.940;5.282;2023-06-04T15:03:29;28.40;48.30
27667;DHT22;15074;50.940;5.282;2023-06-04T15:05:55;28.30;48.80
27667;DHT22;15074;50.940;5.282;2023-06-04T15:08:21;28.20;49.40
27667;DHT22;15074;50.940;5.282;2023-06-04T15:10:46;28.10;49.10
27667;DHT22;15074;50.940;5.282;2023-06-04T15:13:12;27.80;49.00
27667;DHT22;15074;50.940;5.282;2023-06-04T15:15:38;27.50;49.80
27667;DHT22;15074;50.940;5.282;2023-06-04T15:18:03;27.30;49.30
27667;DHT22;15074;50.940;5.282;2023-06-04T15:20:32;27.00;49.80
27667;DHT22;15074;50.940;5.282;2023-06-04T15:22:58;27.00;50.20
27667;DHT22;15074;50.940;5.282;2023-06-04T15:25:24;26.60;50.00
27667;DHT22;15074;50.940;5.282;2023-06-04T15:27:50;26.50;50.90
27667;DHT22;15074;50.940;5.282;2023-06-04T15:30:15;26.40;50.40
27667;DHT22;15074;50.940;5.282;2023-06-04T15:32:43;26.30;50.40
27667;DHT22;15074;50.940;5.282;2023-06-04T15:35:09;26.40;50.90
27667;DHT22;15074;50.940;5.282;2023-06-04T15:37:35;26.40;50.80